Time;durP1;ratioP1;P1;durP2;ratioP2;P2;SDS_P1;SDS_P2;PMS_P1;PMS_P2;Temp;Humidity;BMP_temperature;BMP_pressure;BME280_temperature;BME280_humidity;BME280_pressure;Samples;Min_cycle;Max_cycle;Signal;HPM_P1;HPM_P2
2022/07/18 00:02:20;;;;;;;8.82;3.90;;;;;;;;;;5009257;28;20042;-43
2022/07/18 00:04:45;;;;;;;8.65;3.70;;;;;;;;;;5008543;28;20026;-42
2022/07/18 00:07:11;;;;;;;5.40;3.95;;;;;;;;;;5012810;28;20140;-42
2022/07/18 00:09:38;;;;;;;9.55;3.53;;;;;;;;;;5011451;28;20488;-41
2022/07/18 00:12:06;;;;;;;6.35;4.22;;;;;;;;;;5008130;28;20586;-41
2022/07/18 00:14:31;;;;;;;10.50;5.00;;;;;;;;;;5016820;28;20455;-42
2022/07/18 00:16:58;;;;;;;7.93;3.90;;;;;;;;;;5012191;28;20057;-44
2022/07/18 00:19:25;;;;;;;9.40;4.53;;;;;;;;;;5013600;28;20169;-43
2022/07/18 00:21:50;;;;;;;6.03;3.55;;;;;;;;;;5005119;28;20037;-42
2022/07/18 00:24:16;;;;;;;5.78;3.42;;;;;;;;;;5011276;28;20029;-44
2022/07/18 00:26:42;;;;;;;10.80;3.85;;;;;;;;;;5010217;28;20125;-45
2022/07/18 00:29:08;;;;;;;9.10;4.13;;;;;;;;;;5012290;28;20390;-42
2022/07/18 00:31:34;;;;;;;6.40;3.38;;;;;;;;;;5013374;28;20385;-43
2022/07/18 00:34:00;;;;;;;6.07;3.90;;;;;;;;;;5010460;28;20034;-41
2022/07/18 00:36:26;;;;;;;5.40;3.60;;;;;;;;;;5009343;28;20034;-42
2022/07/18 00:38:52;;;;;;;4.55;3.70;;;;;;;;;;5010165;28;20049;-42
2022/07/18 00:41:18;;;;;;;5.47;3.88;;;;;;;;;;5014230;28;20414;-42
2022/07/18 00:43:44;;;;;;;11.13;3.55;;;;;;;;;;5010123;28;20085;-42
2022/07/18 00:46:11;;;;;;;5.93;3.60;;;;;;;;;;5006441;28;20029;-43
2022/07/18 00:48:42;;;;;;;9.88;3.90;;;;;;;;;;5010740;28;20096;-46
2022/07/18 00:51:08;;;;;;;7.00;3.97;;;;;;;;;;5013330;28;20037;-42
2022/07/18 00:53:35;;;;;;;4.97;3.70;;;;;;;;;;5009243;28;20037;-43
2022/07/18 00:56:02;;;;;;;8.55;4.10;;;;;;;;;;5010692;28;20037;-42
2022/07/18 00:58:29;;;;;;;11.52;3.58;;;;;;;;;;5011167;28;20026;-42
2022/07/18 01:03:39;;;;;;;5.32;3.92;;;;;;;;;;5008592;28;20029;-42
2022/07/18 01:06:05;;;;;;;8.55;3.83;;;;;;;;;;5008873;28;20482;-42
2022/07/18 01:08:30;;;;;;;5.47;3.72;;;;;;;;;;5010432;28;20053;-43
2022/07/18 01:10:56;;;;;;;7.38;4.18;;;;;;;;;;5007800;28;20060;-43
2022/07/18 01:13:22;;;;;;;9.10;4.47;;;;;;;;;;5004844;28;20053;-42
2022/07/18 01:15:48;;;;;;;7.22;4.00;;;;;;;;;;5011696;28;20423;-43
2022/07/18 01:18:13;;;;;;;6.82;3.88;;;;;;;;;;5010917;28;20088;-41
2022/07/18 01:20:39;;;;;;;6.30;3.58;;;;;;;;;;5012930;28;20034;-43
2022/07/18 01:23:05;;;;;;;8.00;3.95;;;;;;;;;;5009849;28;20124;-42
2022/07/18 01:25:31;;;;;;;6.90;3.80;;;;;;;;;;5011584;28;20037;-42
2022/07/18 01:27:57;;;;;;;6.80;3.75;;;;;;;;;;5008357;28;20037;-41
2022/07/18 01:30:24;;;;;;;6.50;3.70;;;;;;;;;;5006425;28;20030;-42
2022/07/18 01:33:01;;;;;;;8.18;4.20;;;;;;;;;;5012546;28;20498;-42
2022/07/18 01:35:28;;;;;;;8.75;4.20;;;;;;;;;;5009936;28;20037;-41
2022/07/18 01:37:56;;;;;;;7.70;4.30;;;;;;;;;;5012666;28;20022;-43
2022/07/18 01:40:23;;;;;;;4.88;3.78;;;;;;;;;;5008208;28;20029;-42
2022/07/18 01:42:49;;;;;;;12.35;4.47;;;;;;;;;;5006914;28;20033;-41
2022/07/18 01:45:15;;;;;;;7.28;4.15;;;;;;;;;;5014213;28;20030;-42
2022/07/18 01:47:41;;;;;;;5.75;3.78;;;;;;;;;;5008784;28;20391;-43
2022/07/18 01:50:09;;;;;;;5.45;4.43;;;;;;;;;;5011509;28;20475;-42
2022/07/18 01:52:35;;;;;;;5.95;4.13;;;;;;;;;;5009559;28;20025;-44
2022/07/18 01:55:01;;;;;;;5.25;4.00;;;;;;;;;;5010789;28;20049;-42
2022/07/18 01:57:28;;;;;;;6.72;4.10;;;;;;;;;;5013560;28;20041;-42
2022/07/18 01:59:53;;;;;;;6.72;4.07;;;;;;;;;;5006972;28;20033;-42
2022/07/18 02:02:19;;;;;;;5.05;4.47;;;;;;;;;;5007786;28;20102;-42
2022/07/18 02:04:59;;;;;;;10.25;4.57;;;;;;;;;;5005486;28;20501;-41
2022/07/18 02:07:29;;;;;;;8.07;4.30;;;;;;;;;;5011307;28;20038;-41
2022/07/18 02:09:55;;;;;;;6.55;4.32;;;;;;;;;;5006829;28;20034;-41
2022/07/18 02:12:21;;;;;;;10.43;5.25;;;;;;;;;;5013163;28;20021;-44
2022/07/18 02:14:48;;;;;;;5.43;4.35;;;;;;;;;;5008125;28;20046;-43
2022/07/18 02:17:14;;;;;;;8.75;4.57;;;;;;;;;;5010073;28;20033;-41
2022/07/18 02:19:40;;;;;;;6.63;4.30;;;;;;;;;;5009965;28;20470;-44
2022/07/18 02:22:06;;;;;;;10.00;4.72;;;;;;;;;;5008841;28;20025;-43
2022/07/18 02:24:32;;;;;;;11.48;4.90;;;;;;;;;;5009709;28;20076;-42
2022/07/18 02:26:58;;;;;;;6.38;4.82;;;;;;;;;;5007851;28;20038;-41
2022/07/18 02:29:24;;;;;;;9.82;4.53;;;;;;;;;;5009530;28;20036;-43
2022/07/18 02:31:49;;;;;;;6.43;5.05;;;;;;;;;;5010302;28;20030;-41
2022/07/18 02:34:15;;;;;;;7.82;4.47;;;;;;;;;;5005101;28;20121;-42
2022/07/18 02:36:41;;;;;;;11.70;4.78;;;;;;;;;;5006584;28;20458;-41
2022/07/18 02:39:07;;;;;;;9.00;5.20;;;;;;;;;;5013523;28;20347;-42
2022/07/18 02:41:34;;;;;;;7.28;5.03;;;;;;;;;;5008838;28;20053;-43
2022/07/18 02:44:00;;;;;;;11.40;5.10;;;;;;;;;;5006071;28;20022;-42
2022/07/18 02:46:26;;;;;;;6.93;5.10;;;;;;;;;;5007521;28;20053;-41
2022/07/18 02:48:52;;;;;;;7.38;4.82;;;;;;;;;;5007240;28;20028;-42
2022/07/18 02:51:18;;;;;;;8.95;5.20;;;;;;;;;;5008673;28;20120;-48
2022/07/18 02:53:43;;;;;;;13.75;5.20;;;;;;;;;;5007524;28;20029;-42
2022/07/18 02:56:09;;;;;;;10.10;5.38;;;;;;;;;;5009485;28;20073;-41
2022/07/18 02:58:35;;;;;;;7.75;5.40;;;;;;;;;;5006977;28;20180;-40
2022/07/18 03:01:00;;;;;;;8.80;5.13;;;;;;;;;;5008018;28;20529;-42
2022/07/18 03:03:26;;;;;;;11.13;5.32;;;;;;;;;;5001088;28;20041;-44
2022/07/18 03:05:52;;;;;;;7.85;5.43;;;;;;;;;;5008924;28;20113;-41
2022/07/18 03:08:18;;;;;;;8.50;5.88;;;;;;;;;;5006581;28;20029;-42
2022/07/18 03:10:44;;;;;;;6.80;4.93;;;;;;;;;;5005909;28;20096;-44
2022/07/18 03:13:10;;;;;;;7.35;5.45;;;;;;;;;;5008672;28;20026;-42
2022/07/18 03:15:36;;;;;;;7.40;5.45;;;;;;;;;;5007536;28;20034;-41
2022/07/18 03:18:03;;;;;;;10.63;5.40;;;;;;;;;;5006784;28;20052;-41
2022/07/18 03:20:28;;;;;;;9.35;5.15;;;;;;;;;;5008307;28;20026;-42
2022/07/18 03:22:55;;;;;;;5.68;5.10;;;;;;;;;;5006047;28;20025;-42
2022/07/18 03:25:21;;;;;;;8.55;5.35;;;;;;;;;;5010865;28;20041;-42
2022/07/18 03:27:46;;;;;;;10.15;5.10;;;;;;;;;;5011167;28;20060;-43
2022/07/18 03:30:13;;;;;;;5.45;4.88;;;;;;;;;;5010040;28;20506;-42
2022/07/18 03:32:38;;;;;;;7.50;5.32;;;;;;;;;;5007619;28;20064;-42
2022/07/18 03:35:04;;;;;;;6.30;5.32;;;;;;;;;;5006658;28;20096;-42
2022/07/18 03:37:30;;;;;;;7.03;5.18;;;;;;;;;;5009501;28;20025;-44
2022/07/18 03:39:56;;;;;;;7.90;5.60;;;;;;;;;;5004664;28;20037;-43
2022/07/18 03:42:22;;;;;;;6.28;5.38;;;;;;;;;;5012030;28;20482;-42
2022/07/18 03:44:48;;;;;;;9.32;5.85;;;;;;;;;;5004076;28;20022;-43
2022/07/18 03:47:13;;;;;;;12.93;5.72;;;;;;;;;;5009152;28;20041;-41
2022/07/18 03:49:39;;;;;;;6.22;5.60;;;;;;;;;;5008338;28;20025;-45
2022/07/18 03:52:05;;;;;;;9.93;6.05;;;;;;;;;;5007475;28;20030;-44
2022/07/18 03:54:31;;;;;;;7.95;5.82;;;;;;;;;;5008263;28;20116;-42
2022/07/18 03:56:56;;;;;;;5.85;5.22;;;;;;;;;;5006146;28;20104;-45
2022/07/18 03:59:22;;;;;;;8.55;5.53;;;;;;;;;;5008312;28;20026;-42
2022/07/18 04:01:48;;;;;;;6.32;5.75;;;;;;;;;;5009312;28;20043;-43
2022/07/18 04:04:14;;;;;;;11.25;6.38;;;;;;;;;;5006823;28;20022;-45
2022/07/18 04:06:39;;;;;;;9.05;5.70;;;;;;;;;;5007630;28;20482;-45
2022/07/18 04:09:05;;;;;;;10.68;5.60;;;;;;;;;;5008409;28;20038;-44
2022/07/18 04:11:31;;;;;;;8.80;5.75;;;;;;;;;;5008197;28;20444;-42
2022/07/18 04:14:03;;;;;;;7.03;5.72;;;;;;;;;;5002228;28;20034;-48
2022/07/18 04:16:49;;;;;;;8.20;5.70;;;;;;;;;;5008991;28;20128;-48
2022/07/18 04:19:34;;;;;;;9.70;5.93;;;;;;;;;;5011900;28;20052;-43
2022/07/18 04:22:20;;;;;;;8.10;5.20;;;;;;;;;;5007067;28;20088;-42
2022/07/18 04:25:05;;;;;;;18.38;5.95;;;;;;;;;;5015762;28;20405;-42
2022/07/18 04:27:51;;;;;;;9.00;5.88;;;;;;;;;;5011904;28;20065;-42
2022/07/18 04:30:38;;;;;;;9.00;5.55;;;;;;;;;;5012716;28;20038;-43
2022/07/18 04:33:24;;;;;;;6.53;5.45;;;;;;;;;;5008279;28;20118;-42
2022/07/18 04:35:50;;;;;;;10.07;5.88;;;;;;;;;;5009866;28;20115;-41
2022/07/18 04:38:16;;;;;;;9.95;5.63;;;;;;;;;;5009672;28;20419;-43
2022/07/18 04:40:42;;;;;;;6.80;5.40;;;;;;;;;;5013253;28;20040;-41
2022/07/18 04:43:08;;;;;;;13.25;6.13;;;;;;;;;;5010432;28;20026;-43
2022/07/18 04:45:35;;;;;;;9.57;5.50;;;;;;;;;;5013694;28;20646;-42
2022/07/18 04:48:03;;;;;;;12.93;5.65;;;;;;;;;;5009003;28;20036;-45
2022/07/18 04:50:29;;;;;;;5.78;5.15;;;;;;;;;;5010381;28;20117;-44
2022/07/18 04:52:56;;;;;;;6.53;5.72;;;;;;;;;;5009826;28;20030;-47
2022/07/18 04:55:23;;;;;;;6.57;5.65;;;;;;;;;;5011176;28;20034;-42
2022/07/18 04:57:50;;;;;;;9.27;6.20;;;;;;;;;;5010979;28;20033;-47
2022/07/18 05:00:19;;;;;;;9.65;5.47;;;;;;;;;;5015120;28;20044;-45
2022/07/18 05:02:47;;;;;;;10.05;5.68;;;;;;;;;;5009734;28;20026;-45
2022/07/18 05:05:15;;;;;;;12.13;5.70;;;;;;;;;;5011623;28;20109;-49
2022/07/18 05:07:42;;;;;;;8.27;6.18;;;;;;;;;;5009649;28;20504;-42
2022/07/18 05:10:09;;;;;;;6.53;5.60;;;;;;;;;;5011034;28;20113;-49
2022/07/18 05:12:39;;;;;;;10.48;5.95;;;;;;;;;;5011114;28;20022;-43
2022/07/18 05:15:07;;;;;;;10.18;5.93;;;;;;;;;;5010909;28;20037;-43
2022/07/18 05:17:33;;;;;;;8.93;5.70;;;;;;;;;;5011639;28;20069;-43
2022/07/18 05:19:59;;;;;;;9.57;5.80;;;;;;;;;;5010701;28;20513;-44
2022/07/18 05:22:24;;;;;;;7.35;5.50;;;;;;;;;;5011303;28;20036;-41
2022/07/18 05:24:50;;;;;;;8.73;6.00;;;;;;;;;;5009488;28;20042;-42
2022/07/18 05:27:16;;;;;;;15.50;5.95;;;;;;;;;;5010818;28;20125;-45
2022/07/18 05:29:42;;;;;;;5.90;5.20;;;;;;;;;;5008833;28;20546;-45
2022/07/18 05:32:08;;;;;;;10.52;5.80;;;;;;;;;;5004767;28;20495;-45
2022/07/18 05:34:34;;;;;;;13.05;5.90;;;;;;;;;;5004892;28;20527;-47
2022/07/18 05:37:00;;;;;;;9.00;5.82;;;;;;;;;;5009214;28;20034;-42
2022/07/18 05:39:26;;;;;;;15.45;5.28;;;;;;;;;;5004243;28;20055;-47
2022/07/18 05:41:52;;;;;;;6.43;5.40;;;;;;;;;;5005756;28;20473;-43
2022/07/18 05:44:21;;;;;;;9.60;5.07;;;;;;;;;;5007900;28;20034;-42
2022/07/18 05:46:47;;;;;;;11.80;5.90;;;;;;;;;;5008829;28;20030;-44
2022/07/18 05:49:14;;;;;;;7.80;5.28;;;;;;;;;;5008151;28;20112;-44
2022/07/18 05:51:40;;;;;;;13.98;5.35;;;;;;;;;;5001834;28;20046;-45
2022/07/18 05:54:06;;;;;;;8.88;5.40;;;;;;;;;;4994819;28;20052;-45
2022/07/18 05:56:32;;;;;;;7.88;5.20;;;;;;;;;;4995706;28;20057;-43
2022/07/18 05:58:58;;;;;;;9.02;5.60;;;;;;;;;;5000371;28;20068;-47
2022/07/18 06:01:24;;;;;;;9.27;5.40;;;;;;;;;;4999045;28;20041;-41
2022/07/18 06:03:49;;;;;;;11.80;5.82;;;;;;;;;;5001614;28;20037;-50
2022/07/18 06:06:16;;;;;;;11.25;5.22;;;;;;;;;;5010121;28;20109;-42
2022/07/18 06:08:42;;;;;;;7.70;5.18;;;;;;;;;;5009076;28;20368;-45
2022/07/18 06:11:08;;;;;;;9.93;5.60;;;;;;;;;;5003148;28;20099;-48
2022/07/18 06:13:37;;;;;;;8.77;5.03;;;;;;;;;;5010602;28;20034;-46
2022/07/18 06:16:03;;;;;;;7.80;5.00;;;;;;;;;;5000229;28;20026;-45
2022/07/18 06:18:29;;;;;;;5.90;5.10;;;;;;;;;;5005961;28;20038;-43
2022/07/18 06:20:54;;;;;;;7.55;4.75;;;;;;;;;;5009243;28;20042;-41
2022/07/18 06:23:20;;;;;;;7.40;5.05;;;;;;;;;;5009685;28;20445;-42
2022/07/18 06:25:46;;;;;;;8.43;5.25;;;;;;;;;;5006796;28;20372;-44
2022/07/18 06:28:11;;;;;;;11.63;6.43;;;;;;;;;;5011431;28;20041;-44
2022/07/18 06:30:37;;;;;;;14.25;5.57;;;;;;;;;;5007447;28;20113;-43
2022/07/18 06:33:05;;;;;;;9.27;5.03;;;;;;;;;;5005253;28;20030;-42
2022/07/18 06:35:32;;;;;;;6.63;5.03;;;;;;;;;;5001387;28;20044;-42
2022/07/18 06:37:57;;;;;;;5.90;5.07;;;;;;;;;;5009082;28;20109;-44
2022/07/18 06:40:25;;;;;;;8.43;4.75;;;;;;;;;;5008179;28;20117;-42
2022/07/18 06:42:51;;;;;;;7.65;4.82;;;;;;;;;;5006547;28;20091;-42
2022/07/18 06:45:18;;;;;;;7.30;5.40;;;;;;;;;;5008401;28;20096;-42
2022/07/18 06:47:44;;;;;;;7.38;4.70;;;;;;;;;;5009292;28;20686;-43
2022/07/18 06:50:14;;;;;;;10.18;5.05;;;;;;;;;;5004247;28;20393;-43
2022/07/18 06:52:41;;;;;;;6.50;4.88;;;;;;;;;;5011321;28;20049;-42
2022/07/18 06:55:08;;;;;;;8.95;4.95;;;;;;;;;;5009769;28;20042;-45
2022/07/18 06:57:34;;;;;;;6.82;4.70;;;;;;;;;;5004830;28;20156;-44
2022/07/18 06:59:59;;;;;;;26.63;5.18;;;;;;;;;;5005215;28;20105;-44
2022/07/18 07:02:26;;;;;;;5.78;4.55;;;;;;;;;;5010643;28;20033;-41
2022/07/18 07:04:51;;;;;;;8.02;4.47;;;;;;;;;;5010359;28;20621;-42
2022/07/18 07:07:18;;;;;;;4.95;4.45;;;;;;;;;;5009486;28;20124;-45
2022/07/18 07:09:44;;;;;;;6.70;4.70;;;;;;;;;;5009804;28;20018;-42
2022/07/18 07:12:10;;;;;;;7.32;4.60;;;;;;;;;;5011589;28;20025;-45
2022/07/18 07:14:36;;;;;;;8.23;4.65;;;;;;;;;;5010987;28;20049;-41
2022/07/18 07:17:03;;;;;;;8.13;4.95;;;;;;;;;;5006542;28;20037;-46
2022/07/18 07:19:29;;;;;;;9.85;5.10;;;;;;;;;;5006543;28;20044;-44
2022/07/18 07:21:54;;;;;;;9.00;5.10;;;;;;;;;;5002194;28;20026;-42
2022/07/18 07:24:20;;;;;;;8.35;4.40;;;;;;;;;;5005284;28;20113;-48
2022/07/18 07:26:46;;;;;;;7.57;5.00;;;;;;;;;;5007585;28;20498;-44
2022/07/18 07:29:11;;;;;;;7.25;5.00;;;;;;;;;;5004554;28;20037;-43
2022/07/18 07:31:37;;;;;;;8.95;4.55;;;;;;;;;;5002259;28;20026;-45
2022/07/18 07:34:03;;;;;;;7.68;4.82;;;;;;;;;;5004203;28;20175;-43
2022/07/18 07:36:28;;;;;;;7.95;4.82;;;;;;;;;;5007015;28;20038;-45
2022/07/18 07:38:55;;;;;;;12.15;5.03;;;;;;;;;;5006893;28;20030;-46
2022/07/18 07:41:20;;;;;;;8.52;4.97;;;;;;;;;;5007184;28;20072;-43
2022/07/18 07:43:46;;;;;;;12.55;4.68;;;;;;;;;;4995943;28;20030;-42
2022/07/18 07:46:12;;;;;;;7.90;4.97;;;;;;;;;;5004936;28;20514;-42
2022/07/18 07:48:38;;;;;;;8.27;5.25;;;;;;;;;;5005531;28;20026;-45
2022/07/18 07:51:04;;;;;;;8.35;5.10;;;;;;;;;;5007581;28;20041;-43
2022/07/18 07:53:31;;;;;;;6.78;5.05;;;;;;;;;;5007243;28;20037;-42
2022/07/18 07:55:57;;;;;;;9.15;4.70;;;;;;;;;;5004992;28;20044;-42
2022/07/18 07:58:23;;;;;;;7.22;4.82;;;;;;;;;;4997671;28;20030;-44
2022/07/18 08:00:48;;;;;;;12.27;5.32;;;;;;;;;;5005547;28;20053;-42
2022/07/18 08:03:14;;;;;;;10.05;4.88;;;;;;;;;;4993657;28;20041;-42
2022/07/18 08:05:49;;;;;;;7.43;4.88;;;;;;;;;;5001460;28;20072;-42
2022/07/18 08:08:15;;;;;;;5.68;5.10;;;;;;;;;;5001890;28;20022;-42
2022/07/18 08:10:41;;;;;;;6.93;5.20;;;;;;;;;;5006099;28;20033;-42
2022/07/18 08:13:07;;;;;;;9.95;5.05;;;;;;;;;;5004805;28;20498;-41
2022/07/18 08:15:32;;;;;;;7.25;4.88;;;;;;;;;;5007291;28;20034;-42
2022/07/18 08:17:58;;;;;;;12.15;5.50;;;;;;;;;;5011569;28;20025;-41
2022/07/18 08:20:24;;;;;;;10.93;5.43;;;;;;;;;;5009697;28;20072;-43
2022/07/18 08:22:59;;;;;;;8.43;5.05;;;;;;;;;;5006221;28;20122;-42
2022/07/18 08:25:25;;;;;;;8.23;5.05;;;;;;;;;;5002671;28;20018;-41
2022/07/18 08:27:51;;;;;;;10.75;4.90;;;;;;;;;;5006803;28;20021;-42
2022/07/18 08:30:17;;;;;;;13.65;5.07;;;;;;;;;;5004794;28;20769;-41
2022/07/18 08:32:43;;;;;;;8.77;4.97;;;;;;;;;;5007261;28;20032;-42
2022/07/18 08:35:09;;;;;;;12.88;4.85;;;;;;;;;;5003560;28;20041;-41
2022/07/18 08:37:35;;;;;;;7.90;4.93;;;;;;;;;;5010467;28;20030;-42
2022/07/18 08:40:00;;;;;;;9.77;4.85;;;;;;;;;;5009510;28;20030;-42
2022/07/18 08:42:27;;;;;;;7.75;4.80;;;;;;;;;;5009725;28;20053;-43
2022/07/18 08:44:56;;;;;;;7.95;4.90;;;;;;;;;;5011658;28;20030;-44
2022/07/18 08:47:26;;;;;;;15.45;5.32;;;;;;;;;;5011064;28;20037;-42
2022/07/18 08:49:53;;;;;;;9.10;5.65;;;;;;;;;;5007652;28;20120;-44
2022/07/18 08:52:19;;;;;;;8.60;5.90;;;;;;;;;;5010135;28;20100;-42
2022/07/18 08:54:46;;;;;;;12.80;5.32;;;;;;;;;;5009787;28;22096;-42
2022/07/18 08:57:12;;;;;;;15.02;5.93;;;;;;;;;;5011352;28;20030;-47
2022/07/18 08:59:39;;;;;;;16.42;5.85;;;;;;;;;;5008728;28;20087;-43
2022/07/18 09:02:06;;;;;;;6.32;5.72;;;;;;;;;;5010343;28;20026;-42
2022/07/18 09:04:39;;;;;;;8.52;5.40;;;;;;;;;;5009989;28;20491;-42
2022/07/18 09:07:11;;;;;;;8.43;5.45;;;;;;;;;;5007774;28;20034;-42
2022/07/18 09:09:37;;;;;;;13.65;5.38;;;;;;;;;;5005793;28;20105;-43
2022/07/18 09:12:09;;;;;;;15.38;6.03;;;;;;;;;;5008800;28;20022;-45
2022/07/18 09:14:40;;;;;;;9.88;5.88;;;;;;;;;;5008685;28;20103;-43
2022/07/18 09:17:20;;;;;;;11.50;5.80;;;;;;;;;;5007963;28;20107;-44
2022/07/18 09:19:59;;;;;;;8.35;5.78;;;;;;;;;;5008915;28;20048;-49
2022/07/18 09:22:26;;;;;;;15.82;5.50;;;;;;;;;;5005909;28;20034;-45
2022/07/18 09:25:07;;;;;;;8.73;5.80;;;;;;;;;;5006028;28;20034;-42
2022/07/18 09:27:55;;;;;;;7.20;4.95;;;;;;;;;;5009556;28;20073;-43
2022/07/18 09:30:28;;;;;;;9.60;5.25;;;;;;;;;;5007917;28;20121;-42
2022/07/18 09:33:03;;;;;;;8.43;5.07;;;;;;;;;;5007143;28;20038;-43
2022/07/18 09:35:32;;;;;;;7.57;4.80;;;;;;;;;;5008982;28;20030;-42
2022/07/18 09:38:05;;;;;;;13.68;5.05;;;;;;;;;;5009263;28;20034;-47
2022/07/18 09:40:32;;;;;;;11.93;5.25;;;;;;;;;;5008968;28;20030;-43
2022/07/18 09:43:01;;;;;;;8.68;4.57;;;;;;;;;;5008595;28;20112;-43
2022/07/18 09:45:31;;;;;;;13.20;5.40;;;;;;;;;;5007746;28;20037;-43
2022/07/18 09:48:02;;;;;;;6.57;4.63;;;;;;;;;;5009561;28;20116;-45
2022/07/18 09:50:33;;;;;;;12.10;5.35;;;;;;;;;;5002539;28;20042;-46
2022/07/18 09:53:03;;;;;;;7.43;5.00;;;;;;;;;;5009048;28;20537;-44
2022/07/18 09:55:29;;;;;;;8.07;4.90;;;;;;;;;;5005154;28;20438;-44
2022/07/18 09:58:08;;;;;;;7.47;5.10;;;;;;;;;;5009402;28;20030;-43
2022/07/18 10:00:35;;;;;;;5.68;4.95;;;;;;;;;;5008129;28;20033;-45
2022/07/18 10:03:03;;;;;;;11.68;5.60;;;;;;;;;;5010160;28;20022;-45
2022/07/18 10:05:30;;;;;;;8.00;5.25;;;;;;;;;;5005722;28;20488;-42
2022/07/18 10:07:58;;;;;;;13.82;5.32;;;;;;;;;;5008756;28;20379;-40
2022/07/18 10:10:24;;;;;;;13.70;5.25;;;;;;;;;;5006057;28;20156;-43
2022/07/18 10:12:53;;;;;;;14.75;4.90;;;;;;;;;;5007182;28;20041;-46
2022/07/18 10:15:23;;;;;;;11.60;5.47;;;;;;;;;;5008638;28;20030;-45
2022/07/18 10:17:50;;;;;;;7.25;4.32;;;;;;;;;;5010054;28;20029;-42
2022/07/18 10:20:16;;;;;;;7.75;4.40;;;;;;;;;;5008865;28;20155;-45
2022/07/18 10:22:44;;;;;;;11.68;5.00;;;;;;;;;;5004316;28;20034;-45
2022/07/18 10:25:13;;;;;;;11.35;4.75;;;;;;;;;;5008366;28;20030;-45
2022/07/18 10:28:00;;;;;;;11.43;4.80;;;;;;;;;;5006089;28;20077;-43
2022/07/18 10:30:29;;;;;;;11.90;4.90;;;;;;;;;;5006885;28;20053;-42
2022/07/18 10:32:55;;;;;;;8.73;4.90;;;;;;;;;;5006372;28;20056;-42
2022/07/18 10:36:01;;;;;;;12.10;4.60;;;;;;;;;;5010131;28;20061;-43
2022/07/18 10:38:27;;;;;;;10.18;4.70;;;;;;;;;;5006730;28;20702;-47
2022/07/18 10:41:11;;;;;;;17.20;5.47;;;;;;;;;;5009003;28;20038;-43
2022/07/18 10:43:42;;;;;;;9.18;4.20;;;;;;;;;;5001736;28;20034;-44
2022/07/18 10:46:09;;;;;;;13.05;4.90;;;;;;;;;;5006573;28;20032;-42
2022/07/18 10:48:35;;;;;;;6.88;4.90;;;;;;;;;;5007533;28;20041;-42
2022/07/18 10:51:07;;;;;;;7.15;4.80;;;;;;;;;;5007002;28;20026;-43
2022/07/18 10:53:56;;;;;;;6.20;4.45;;;;;;;;;;5007642;28;20062;-44
2022/07/18 10:56:28;;;;;;;7.93;4.78;;;;;;;;;;5006701;28;20046;-43
2022/07/18 10:58:58;;;;;;;11.32;4.63;;;;;;;;;;5008443;28;20128;-45
2022/07/18 11:01:25;;;;;;;5.88;4.40;;;;;;;;;;5003616;28;20034;-43
2022/07/18 11:04:26;;;;;;;10.00;4.30;;;;;;;;;;5007883;28;20466;-42
2022/07/18 11:07:14;;;;;;;5.75;4.43;;;;;;;;;;5008677;28;20458;-43
2022/07/18 11:09:47;;;;;;;10.60;4.28;;;;;;;;;;5006287;28;20025;-45
2022/07/18 11:12:23;;;;;;;13.85;4.28;;;;;;;;;;5003627;28;20382;-44
2022/07/18 11:15:10;;;;;;;8.93;4.28;;;;;;;;;;5005192;28;20037;-45
2022/07/18 11:17:52;;;;;;;8.52;4.40;;;;;;;;;;5006605;28;20475;-44
2022/07/18 11:20:37;;;;;;;15.27;4.68;;;;;;;;;;5006830;28;20042;-47
2022/07/18 11:23:12;;;;;;;5.93;3.95;;;;;;;;;;5007379;28;20752;-43
2022/07/18 11:25:38;;;;;;;5.18;3.80;;;;;;;;;;5004226;28;20033;-45
2022/07/18 11:28:08;;;;;;;4.63;4.20;;;;;;;;;;5006693;28;20378;-42
2022/07/18 11:30:34;;;;;;;5.15;3.80;;;;;;;;;;5004191;28;20089;-43
2022/07/18 11:32:59;;;;;;;3.97;3.65;;;;;;;;;;5003805;28;20045;-46
2022/07/18 11:35:25;;;;;;;4.75;4.05;;;;;;;;;;5005292;28;20602;-44
2022/07/18 11:37:53;;;;;;;6.88;4.13;;;;;;;;;;5008514;28;20052;-48
2022/07/18 11:40:19;;;;;;;4.53;3.75;;;;;;;;;;5006491;28;20536;-48
2022/07/18 11:42:45;;;;;;;9.30;3.95;;;;;;;;;;5007621;28;21642;-42
2022/07/18 11:45:13;;;;;;;6.65;3.20;;;;;;;;;;5006449;28;20018;-42
2022/07/18 11:47:45;;;;;;;7.60;3.67;;;;;;;;;;5007892;28;20044;-42
2022/07/18 11:50:11;;;;;;;5.40;3.72;;;;;;;;;;5007474;28;20108;-46
2022/07/18 11:52:37;;;;;;;8.50;3.60;;;;;;;;;;5005751;28;20121;-47
2022/07/18 11:55:03;;;;;;;4.32;3.50;;;;;;;;;;5006682;28;20113;-45
2022/07/18 11:57:31;;;;;;;9.63;4.13;;;;;;;;;;5006489;28;20093;-42
2022/07/18 11:59:59;;;;;;;16.42;3.58;;;;;;;;;;5002423;28;20061;-46
2022/07/18 12:03:02;;;;;;;7.28;3.60;;;;;;;;;;5005958;28;20026;-43
2022/07/18 12:05:37;;;;;;;10.80;3.17;;;;;;;;;;5005059;28;20471;-43
2022/07/18 12:08:26;;;;;;;5.28;3.60;;;;;;;;;;5003371;28;20475;-43
2022/07/18 12:11:17;;;;;;;4.00;3.53;;;;;;;;;;5006081;28;20057;-45
2022/07/18 12:13:44;;;;;;;;;;;;;;;;;;5001133;28;20356;-48
2022/07/18 12:16:25;;;;;;;8.73;3.55;;;;;;;;;;5007078;28;19921;-44
2022/07/18 12:19:13;;;;;;;11.13;3.40;;;;;;;;;;5006411;28;20022;-42
2022/07/18 12:21:53;;;;;;;8.07;3.42;;;;;;;;;;5006534;28;20512;-48
2022/07/18 12:24:18;;;;;;;8.07;3.20;;;;;;;;;;5003623;28;20059;-42
2022/07/18 12:26:44;;;;;;;7.93;3.40;;;;;;;;;;5005499;28;20029;-42
2022/07/18 12:29:10;;;;;;;11.25;3.42;;;;;;;;;;5006064;28;20022;-44
2022/07/18 12:31:44;;;;;;;8.38;3.50;;;;;;;;;;5003340;28;20160;-43
2022/07/18 12:34:16;;;;;;;6.30;3.20;;;;;;;;;;5006328;28;20072;-47
2022/07/18 12:36:58;;;;;;;18.45;3.85;;;;;;;;;;5006864;28;20110;-41
2022/07/18 12:39:32;;;;;;;8.60;2.97;;;;;;;;;;5006997;28;20029;-42
2022/07/18 12:41:59;;;;;;;10.20;3.17;;;;;;;;;;5006968;28;20037;-43
2022/07/18 12:44:26;;;;;;;15.77;3.80;;;;;;;;;;5001064;28;20096;-46
2022/07/18 12:46:52;;;;;;;12.27;3.88;;;;;;;;;;5010691;28;20026;-42
2022/07/18 12:49:18;;;;;;;15.52;3.30;;;;;;;;;;5011251;28;20060;-42
2022/07/18 12:51:44;;;;;;;22.17;3.75;;;;;;;;;;5009738;28;20042;-42
2022/07/18 12:54:09;;;;;;;10.75;3.60;;;;;;;;;;5012260;28;20147;-49
2022/07/18 12:56:35;;;;;;;12.38;3.28;;;;;;;;;;5010433;28;20184;-46
2022/07/18 12:59:01;;;;;;;10.15;3.40;;;;;;;;;;5008894;28;20693;-42
2022/07/18 13:01:26;;;;;;;10.10;3.67;;;;;;;;;;5007415;28;20034;-47
2022/07/18 13:03:52;;;;;;;12.38;3.30;;;;;;;;;;5010904;28;20033;-42
2022/07/18 13:06:18;;;;;;;10.90;3.42;;;;;;;;;;5008761;28;20030;-44
2022/07/18 13:08:44;;;;;;;16.60;4.10;;;;;;;;;;5010515;28;20501;-44
2022/07/18 13:11:09;;;;;;;7.80;3.22;;;;;;;;;;5007260;28;20036;-43
2022/07/18 13:13:35;;;;;;;12.48;3.72;;;;;;;;;;5009321;28;20029;-43
2022/07/18 13:16:01;;;;;;;7.72;3.30;;;;;;;;;;5008119;28;20055;-47
2022/07/18 13:18:27;;;;;;;16.63;3.58;;;;;;;;;;5008507;28;20034;-44
2022/07/18 13:20:53;;;;;;;8.05;3.22;;;;;;;;;;5008462;28;20120;-43
2022/07/18 13:23:18;;;;;;;11.63;3.33;;;;;;;;;;5007291;28;20034;-42
2022/07/18 13:25:44;;;;;;;5.47;3.40;;;;;;;;;;5009838;28;20037;-47
2022/07/18 13:28:10;;;;;;;3.88;3.28;;;;;;;;;;5006549;28;20028;-49
2022/07/18 13:30:36;;;;;;;3.65;3.00;;;;;;;;;;5005049;28;20690;-44
2022/07/18 13:33:04;;;;;;;12.13;3.63;;;;;;;;;;5009874;28;20073;-43
2022/07/18 13:35:30;;;;;;;4.15;3.00;;;;;;;;;;5006557;28;20033;-49
2022/07/18 13:37:55;;;;;;;4.68;3.40;;;;;;;;;;5006538;28;20105;-47
2022/07/18 13:40:21;;;;;;;6.07;3.10;;;;;;;;;;5007586;28;20382;-44
2022/07/18 13:42:47;;;;;;;5.18;3.35;;;;;;;;;;5010543;28;20064;-42
2022/07/18 13:45:16;;;;;;;6.88;2.97;;;;;;;;;;5009216;28;20104;-44
2022/07/18 13:47:43;;;;;;;9.27;2.90;;;;;;;;;;5009743;28;20029;-43
2022/07/18 13:50:10;;;;;;;10.00;3.10;;;;;;;;;;5008434;28;20033;-44
2022/07/18 13:52:36;;;;;;;10.48;3.60;;;;;;;;;;5008280;28;20026;-45
2022/07/18 13:55:03;;;;;;;6.82;3.38;;;;;;;;;;5009268;28;20107;-44
2022/07/18 13:57:29;;;;;;;8.18;3.28;;;;;;;;;;5011087;28;20516;-42
2022/07/18 13:59:54;;;;;;;6.40;3.13;;;;;;;;;;5009862;28;20037;-45
2022/07/18 14:02:20;;;;;;;8.75;3.58;;;;;;;;;;5010648;28;20029;-44
2022/07/18 14:04:46;;;;;;;5.32;3.38;;;;;;;;;;5010603;28;20031;-44
2022/07/18 14:07:17;;;;;;;4.43;3.15;;;;;;;;;;5008237;28;20058;-44
2022/07/18 14:09:43;;;;;;;7.05;3.33;;;;;;;;;;5009012;28;20036;-44
2022/07/18 14:12:09;;;;;;;6.95;3.38;;;;;;;;;;5010259;28;20092;-45
2022/07/18 14:14:35;;;;;;;9.05;3.67;;;;;;;;;;5011763;28;20616;-49
2022/07/18 14:17:00;;;;;;;6.78;3.33;;;;;;;;;;5010368;28;20413;-43
2022/07/18 14:19:26;;;;;;;3.78;2.97;;;;;;;;;;5007924;28;20068;-44
2022/07/18 14:21:52;;;;;;;11.30;3.53;;;;;;;;;;5008766;28;20028;-43
2022/07/18 14:24:17;;;;;;;7.95;3.65;;;;;;;;;;5009832;28;20112;-43
2022/07/18 14:26:43;;;;;;;6.60;3.60;;;;;;;;;;5008388;28;20054;-43
2022/07/18 14:29:09;;;;;;;6.63;3.50;;;;;;;;;;5007179;28;20380;-43
2022/07/18 14:31:35;;;;;;;5.70;3.70;;;;;;;;;;5010196;28;20021;-43
2022/07/18 14:34:01;;;;;;;8.95;3.20;;;;;;;;;;5008438;28;20029;-43
2022/07/18 14:36:26;;;;;;;9.40;3.38;;;;;;;;;;5009281;28;20030;-45
2022/07/18 14:38:52;;;;;;;5.43;3.35;;;;;;;;;;5010187;28;20034;-49
2022/07/18 14:41:19;;;;;;;5.55;3.55;;;;;;;;;;5010216;28;20458;-43
2022/07/18 14:43:44;;;;;;;7.28;3.40;;;;;;;;;;5007419;28;20057;-50
2022/07/18 14:46:10;;;;;;;5.97;3.08;;;;;;;;;;5008623;28;20021;-42
2022/07/18 14:48:36;;;;;;;8.50;3.30;;;;;;;;;;5007625;28;20030;-48
2022/07/18 14:51:02;;;;;;;8.18;3.30;;;;;;;;;;5006410;28;20249;-44